Time;durP1;ratioP1;P1;durP2;ratioP2;P2;SDS_P1;SDS_P2;PMS_P1;PMS_P2;Temp;Humidity;BMP_temperature;BMP_pressure;BME280_temperature;BME280_humidity;BME280_pressure;Samples;Min_cycle;Max_cycle;Signal;HPM_P1;HPM_P2
2021/04/02 00:00:38;;;;;;;4.90;3.15;;;12.60;82.20;;;12.37;55.53;100490.66;5027334;28;20179;-55
2021/04/02 00:03:11;;;;;;;10.07;2.53;;;12.80;81.00;;;12.51;54.96;100490.09;5029668;28;20048;-55
2021/04/02 00:05:38;;;;;;;5.40;1.52;;;12.90;80.00;;;12.57;54.34;100489.47;5028404;28;20514;-54
2021/04/02 00:08:05;;;;;;;13.75;1.50;;;13.00;79.20;;;12.61;54.29;100482.97;5029859;28;20084;-53
2021/04/02 00:10:46;;;;;;;3.72;1.42;;;13.10;78.70;;;12.59;54.40;100480.50;5026811;28;20145;-50
2021/04/02 00:13:15;;;;;;;6.45;1.65;;;13.10;78.60;;;12.65;53.92;100476.44;5012284;28;20135;-51
2021/04/02 00:15:41;;;;;;;6.05;2.03;;;13.20;78.10;;;12.69;53.71;100476.94;5024906;28;20056;-47
2021/04/02 00:18:09;;;;;;;5.93;2.15;;;13.20;77.70;;;12.66;54.07;100485.09;5028641;28;20030;-53
2021/04/02 00:20:36;;;;;;;4.88;1.75;;;13.20;77.90;;;12.62;54.00;100482.81;5009663;28;20034;-53
2021/04/02 00:23:05;;;;;;;6.93;1.85;;;13.20;78.00;;;12.60;54.31;100473.47;5029103;28;20045;-48
2021/04/02 00:25:31;;;;;;;4.45;1.13;;;13.10;78.20;;;12.70;53.71;100468.94;5027703;28;20108;-51
2021/04/02 00:27:56;;;;;;;13.18;3.85;;;13.20;77.60;;;12.77;53.36;100469.94;5028663;28;20370;-53
2021/04/02 00:30:37;;;;;;;7.32;1.23;;;13.20;77.20;;;12.79;53.23;100460.13;5028010;28;20091;-53
2021/04/02 00:33:04;;;;;;;5.63;1.48;;;13.30;77.00;;;12.81;53.19;100462.59;5028679;28;20076;-54
2021/04/02 00:35:30;;;;;;;5.28;1.50;;;13.30;76.70;;;12.86;52.91;100470.78;5027664;28;20053;-54
2021/04/02 00:37:56;;;;;;;10.13;1.60;;;13.30;76.30;;;12.91;52.69;100452.81;5028346;28;20107;-54
2021/04/02 00:40:32;;;;;;;5.10;1.48;;;13.40;76.00;;;12.94;52.50;100455.94;5021851;28;20061;-51
2021/04/02 00:42:58;;;;;;;;;;;13.40;75.80;;;12.94;52.57;100453.31;5028762;28;20047;-51
2021/04/02 00:45:24;;;;;;;4.95;1.40;;;13.40;75.70;;;12.93;52.47;100445.63;5027234;28;20469;-57
2021/04/02 00:47:56;;;;;;;6.03;1.25;;;13.50;75.70;;;12.83;52.92;100448.38;5027427;28;20176;-53
2021/04/02 00:50:55;;;;;;;5.97;1.38;;;13.40;75.90;;;12.71;53.53;100447.06;5028133;28;20030;-49
2021/04/02 00:53:27;;;;;;;3.58;1.52;;;13.30;76.40;;;12.59;53.69;100450.94;5027581;28;20121;-58
2021/04/02 00:55:55;;;;;;;4.25;2.10;;;13.20;76.70;;;12.49;54.37;100440.59;5023648;28;20103;-49
2021/04/02 00:58:25;;;;;;;5.03;2.00;;;13.10;77.70;;;12.34;55.09;100449.19;5025114;28;20028;-52
2021/04/02 01:00:52;;;;;;;6.13;2.03;;;12.90;78.30;;;12.16;55.79;100444.88;5026345;28;20465;-56
2021/04/02 01:03:22;;;;;;;9.40;2.67;;;12.80;79.60;;;12.03;56.26;100449.69;5009487;28;20068;-53
2021/04/02 01:05:51;;;;;;;7.30;3.33;;;12.70;79.90;;;12.03;56.25;100447.06;5027524;28;20466;-51
2021/04/02 01:08:22;;;;;;;7.30;2.42;;;12.60;80.60;;;12.01;56.43;100449.00;5026982;28;20180;-53
2021/04/02 01:10:51;;;;;;;5.88;2.28;;;12.50;81.00;;;12.00;56.53;100446.56;5027317;28;20041;-56
2021/04/02 01:13:44;;;;;;;4.18;1.77;;;12.50;81.30;;;12.03;56.46;100444.47;5027279;28;20029;-51
2021/04/02 01:16:20;;;;;;;3.25;2.22;;;12.60;81.30;;;12.04;56.85;100446.09;5026798;28;20401;-46
2021/04/02 01:19:05;;;;;;;;;;;12.60;81.70;;;11.98;58.14;100448.50;5027029;28;20429;-55
2021/04/02 01:21:45;;;;;;;4.78;2.35;;;12.50;83.60;;;11.87;57.51;100444.34;5026141;28;19929;-54
2021/04/02 01:24:23;;;;;;;6.60;2.10;;;12.50;83.30;;;11.82;58.00;100439.59;5028053;28;20037;-54
2021/04/02 01:27:19;;;;;;;5.65;2.58;;;12.40;84.40;;;11.79;58.15;100442.53;5027310;28;20111;-56
2021/04/02 01:29:54;;;;;;;5.77;2.50;;;12.40;84.50;;;11.72;58.41;100432.81;5027467;28;20047;-53
2021/04/02 01:32:32;;;;;;;8.25;3.28;;;12.30;84.90;;;11.67;57.97;100429.84;5028004;28;20377;-55
2021/04/02 01:35:18;;;;;;;3.40;2.40;;;12.30;85.00;;;11.66;58.83;100428.19;5008173;28;20029;-52
2021/04/02 01:38:13;;;;;;;4.53;1.98;;;12.20;85.60;;;11.77;58.05;100428.00;5026146;28;20484;-55
2021/04/02 01:40:46;;;;;;;6.65;2.67;;;12.30;84.80;;;11.81;57.09;100417.09;5029344;28;20076;-54
2021/04/02 01:43:19;;;;;;;5.60;2.10;;;12.30;84.30;;;11.82;57.27;100412.66;5031745;28;20034;-54
2021/04/02 01:45:47;;;;;;;2.28;2.08;;;12.40;84.30;;;11.76;57.77;100410.66;5013812;28;20095;-54
2021/04/02 01:48:18;;;;;;;8.38;2.80;;;12.30;84.90;;;11.73;57.92;100410.97;5030294;28;20026;-53
2021/04/02 01:50:49;;;;;;;3.67;2.53;;;12.30;85.20;;;11.65;58.19;100414.34;5013491;28;20034;-51
2021/04/02 01:53:18;;;;;;;5.28;2.45;;;12.20;85.70;;;11.62;58.53;100405.03;5031141;28;20041;-50
2021/04/02 01:55:44;;;;;;;3.83;2.05;;;12.20;86.40;;;11.58;58.69;100401.06;5013015;28;20068;-56
2021/04/02 01:58:12;;;;;;;7.10;2.38;;;12.20;87.20;;;11.49;59.38;100398.56;5011588;28;20060;-54
2021/04/02 02:00:46;;;;;;;4.40;2.65;;;12.10;87.60;;;11.47;59.68;100396.09;5011810;28;20381;-54
2021/04/02 02:03:13;;;;;;;5.93;2.47;;;12.00;88.30;;;11.50;59.02;100400.19;5030623;28;20037;-53
2021/04/02 02:05:40;;;;;;;7.22;2.00;;;12.00;88.00;;;11.55;58.76;100400.56;5012980;28;20025;-51
2021/04/02 02:08:07;;;;;;;3.97;2.58;;;12.10;88.00;;;11.69;57.98;100393.97;5013939;28;20103;-54
2021/04/02 02:10:35;;;;;;;5.95;2.78;;;12.20;86.80;;;11.78;57.57;100393.09;5011539;28;20120;-53
2021/04/02 02:13:02;;;;;;;6.53;2.78;;;12.30;85.90;;;11.70;58.29;100385.16;5031883;28;20040;-53
2021/04/02 02:15:29;;;;;;;5.47;2.72;;;12.30;86.80;;;11.66;58.37;100391.66;5029690;28;20397;-54
2021/04/02 02:18:03;;;;;;;7.53;2.30;;;12.30;87.20;;;11.65;58.46;100388.25;5013867;28;20123;-53
2021/04/02 02:20:32;;;;;;;3.20;2.38;;;12.20;87.30;;;11.58;58.78;100382.00;5011611;28;20041;-51
2021/04/02 02:22:58;;;;;;;6.30;2.80;;;12.20;87.60;;;11.51;59.03;100384.38;5013426;28;20239;-47
2021/04/02 02:25:27;;;;;;;4.63;1.90;;;12.10;88.00;;;11.61;58.42;100382.50;5030005;28;20049;-50
2021/04/02 02:27:54;;;;;;;10.48;2.40;;;12.10;87.80;;;11.70;58.03;100380.78;5031070;28;20030;-53
2021/04/02 02:30:29;;;;;;;3.67;1.38;;;12.20;87.30;;;11.85;57.49;100375.81;5029710;28;20044;-47
2021/04/02 02:32:56;;;;;;;5.63;1.58;;;12.30;86.70;;;12.03;56.89;100371.34;5030216;28;20033;-49
2021/04/02 02:35:22;;;;;;;3.55;1.67;;;12.50;86.00;;;12.14;56.55;100368.47;5029970;28;20485;-52
2021/04/02 02:37:51;;;;;;;8.00;1.50;;;12.60;85.20;;;12.24;56.08;100374.38;5030724;28;20466;-51
2021/04/02 02:40:29;;;;;;;4.55;1.38;;;12.70;84.30;;;12.26;56.12;100372.44;5011580;28;20037;-48
2021/04/02 02:42:57;;;;;;;3.67;1.27;;;12.80;84.00;;;12.26;55.95;100377.66;5030993;28;20463;-48
2021/04/02 02:45:24;;;;;;;6.80;2.42;;;12.80;83.60;;;12.18;56.09;100368.97;5030013;28;20107;-53
2021/04/02 02:47:51;;;;;;;12.00;4.32;;;12.70;83.60;;;12.15;56.11;100370.09;5011690;28;20048;-52
2021/04/02 02:50:23;;;;;;;16.98;5.40;;;12.70;83.60;;;12.16;56.12;100370.91;5028780;28;20114;-52
2021/04/02 02:52:51;;;;;;;10.63;1.65;;;12.70;83.60;;;12.19;56.21;100376.66;5029500;28;20045;-55
2021/04/02 02:55:23;;;;;;;7.40;1.98;;;12.70;84.10;;;12.21;56.32;100364.25;5011732;28;20038;-56
2021/04/02 02:57:52;;;;;;;2.72;1.40;;;12.70;84.30;;;12.22;56.42;100363.28;5013273;28;20041;-52
2021/04/02 03:00:24;;;;;;;3.17;1.38;;;12.70;84.40;;;12.20;56.45;100367.84;5026695;28;20029;-55
2021/04/02 03:02:55;;;;;;;4.60;1.38;;;12.70;84.50;;;12.15;56.46;100367.50;5030556;28;20034;-57
2021/04/02 03:05:25;;;;;;;6.13;1.98;;;12.70;84.30;;;12.12;56.59;100370.41;5010890;28;20037;-53
2021/04/02 03:07:59;;;;;;;5.22;1.10;;;12.70;84.40;;;12.11;56.72;100347.88;5030459;28;20083;-55
2021/04/02 03:10:27;;;;;;;7.03;1.55;;;12.60;84.30;;;12.07;56.43;100350.97;5028832;28;20484;-53
2021/04/02 03:12:55;;;;;;;4.50;1.63;;;12.60;84.10;;;12.05;56.39;100348.50;5012229;28;20060;-56
2021/04/02 03:15:23;;;;;;;5.15;1.55;;;12.60;84.00;;;12.10;56.10;100348.84;5011362;28;20401;-56
2021/04/02 03:17:59;;;;;;;5.22;1.45;;;12.60;83.60;;;12.14;55.94;100344.13;5029628;28;20044;-55
2021/04/02 03:20:25;;;;;;;;;;;12.60;83.50;;;12.21;55.80;100343.34;5011529;28;20037;-55
2021/04/02 03:22:54;;;;;;;8.30;3.60;;;12.70;83.10;;;12.19;55.68;100342.69;5028921;28;19939;-56
2021/04/02 03:25:24;;;;;;;6.50;1.70;;;12.70;83.20;;;12.19;56.46;100339.25;5028999;28;20056;-54
2021/04/02 03:27:51;;;;;;;6.15;1.35;;;12.70;84.20;;;12.17;56.36;100342.03;5012324;28;20397;-53
2021/04/02 03:30:19;;;;;;;5.65;2.03;;;12.70;84.30;;;12.18;56.29;100342.84;5011311;28;20059;-50
2021/04/02 03:32:55;;;;;;;4.93;1.65;;;12.70;84.30;;;12.17;56.42;100347.25;5028520;28;20103;-51
2021/04/02 03:35:23;;;;;;;6.45;2.10;;;12.70;84.70;;;12.15;56.10;100348.38;5028649;28;20088;-51
2021/04/02 03:37:51;;;;;;;5.22;2.08;;;12.70;83.70;;;12.06;56.76;100350.16;5028511;28;20034;-52
2021/04/02 03:40:22;;;;;;;5.55;1.65;;;12.60;84.50;;;11.99;58.05;100356.13;5010906;28;20045;-51
2021/04/02 03:42:55;;;;;;;10.27;1.58;;;12.60;86.10;;;11.52;60.91;100346.88;5030283;28;20117;-54
2021/04/02 03:45:24;;;;;;;6.18;1.80;;;12.30;90.00;;;11.53;60.23;100343.31;5011150;28;20041;-57
2021/04/02 03:47:54;;;;;;;7.53;2.35;;;12.10;90.30;;;11.67;59.52;100343.72;5027904;28;20136;-51
2021/04/02 03:50:23;;;;;;;9.05;2.13;;;12.10;90.00;;;11.71;58.75;100345.06;5028411;28;20060;-53
2021/04/02 03:53:12;;;;;;;7.68;2.53;;;12.30;89.90;;;11.48;61.58;100353.38;5028762;28;20053;-54
2021/04/02 03:55:45;;;;;;;5.97;2.90;;;12.10;91.20;;;11.43;61.18;100350.41;5023442;28;20041;-55
2021/04/02 03:58:16;;;;;;;10.45;2.97;;;12.00;91.30;;;11.46;61.21;100346.69;5029187;28;20057;-47
2021/04/02 04:00:56;;;;;;;5.93;2.90;;;12.00;92.00;;;11.47;61.88;100341.31;5028082;28;20033;-52
2021/04/02 04:03:24;;;;;;;5.40;2.22;;;12.00;92.30;;;11.56;60.71;100347.41;5013869;28;20080;-57
2021/04/02 04:05:57;;;;;;;7.78;2.33;;;12.10;92.30;;;11.58;60.53;100346.28;5010541;28;20041;-54
2021/04/02 04:08:25;;;;;;;6.60;2.20;;;12.10;92.00;;;11.66;60.14;100347.31;5028965;28;20033;-56
2021/04/02 04:10:53;;;;;;;5.65;2.47;;;12.10;91.80;;;11.70;60.24;100346.03;5028260;28;20404;-48
2021/04/02 04:13:22;;;;;;;4.68;2.15;;;12.20;92.00;;;11.70;60.42;100352.06;5029180;28;20031;-50
2021/04/02 04:15:50;;;;;;;4.95;2.55;;;12.20;92.20;;;11.74;60.40;100342.94;5010324;28;20044;-51
2021/04/02 04:18:18;;;;;;;8.45;2.50;;;12.20;92.10;;;11.77;60.24;100347.06;5028669;28;20065;-51
2021/04/02 04:20:45;;;;;;;11.18;2.80;;;12.30;91.90;;;11.76;59.73;100332.34;5028114;28;20497;-57
2021/04/02 04:23:13;;;;;;;12.07;3.33;;;12.30;91.80;;;11.75;59.74;100334.16;5028765;28;20425;-55
2021/04/02 04:25:41;;;;;;;7.93;2.60;;;12.30;91.50;;;11.72;59.54;100339.69;5010171;28;20045;-53
2021/04/02 04:28:11;;;;;;;5.03;2.20;;;12.30;91.30;;;11.75;58.97;100331.53;5027344;28;20206;-56
2021/04/02 04:30:39;;;;;;;8.30;2.08;;;12.30;90.70;;;11.74;58.71;100334.31;5028651;28;20369;-53
2021/04/02 04:33:06;;;;;;;8.43;2.83;;;12.30;90.40;;;11.71;58.34;100334.63;5010359;28;20033;-59
2021/04/02 04:35:33;;;;;;;6.05;2.85;;;12.20;90.10;;;11.65;58.57;100336.03;5028171;28;20136;-55
2021/04/02 04:38:03;;;;;;;8.57;2.75;;;12.20;90.20;;;11.59;58.89;100331.44;5027272;28;20041;-54
2021/04/02 04:40:30;;;;;;;9.98;2.47;;;12.10;90.30;;;11.58;59.03;100340.25;5028508;28;20037;-57
2021/04/02 04:42:59;;;;;;;7.55;3.00;;;12.10;90.70;;;11.62;59.13;100341.56;5010208;28;20034;-51
2021/04/02 04:45:27;;;;;;;6.55;2.50;;;12.10;90.90;;;11.68;59.17;100335.75;5024850;28;20493;-56
2021/04/02 04:47:54;;;;;;;5.90;2.47;;;12.20;91.10;;;11.78;58.96;100338.28;5010114;28;20040;-51
2021/04/02 04:50:20;;;;;;;5.05;2.70;;;12.20;91.10;;;11.72;59.03;100336.25;5009796;28;20451;-54
2021/04/02 04:53:14;;;;;;;8.63;2.95;;;12.30;90.80;;;11.61;59.97;100330.31;5007233;28;20034;-58
2021/04/02 04:55:43;;;;;;;11.63;3.45;;;12.20;91.10;;;11.52;59.62;100336.44;5008197;28;20469;-56
2021/04/02 04:58:13;;;;;;;8.55;3.10;;;12.10;91.10;;;11.38;60.10;100338.78;5015835;28;20352;-53
2021/04/02 05:00:43;;;;;;;10.52;3.42;;;12.00;91.20;;;11.40;59.91;100347.28;5025408;28;20035;-53
2021/04/02 05:03:16;;;;;;;4.70;3.05;;;12.00;91.40;;;11.29;60.17;100348.38;5008591;28;20065;-55
2021/04/02 05:05:45;;;;;;;7.50;2.88;;;11.90;91.50;;;11.38;60.09;100351.84;5028322;28;20029;-54
2021/04/02 05:08:17;;;;;;;7.53;3.15;;;11.90;91.80;;;11.61;59.87;100345.97;5023735;28;20084;-53
2021/04/02 05:10:45;;;;;;;4.90;2.47;;;12.10;91.80;;;11.71;59.45;100352.88;5027205;28;20041;-53
2021/04/02 05:13:14;;;;;;;5.32;2.50;;;12.20;91.70;;;11.75;59.44;100346.38;5007484;28;20040;-59
2021/04/02 05:15:41;;;;;;;7.60;2.58;;;12.30;91.80;;;11.82;59.65;100356.06;5009402;28;20040;-56
2021/04/02 05:18:09;;;;;;;6.05;2.95;;;12.30;91.90;;;11.86;59.45;100352.16;5024973;28;20188;-49
2021/04/02 05:20:45;;;;;;;5.68;2.67;;;12.40;91.80;;;11.88;60.41;100357.22;5009537;28;20044;-53
2021/04/02 05:23:16;;;;;;;8.23;4.18;;;12.40;92.00;;;11.94;59.47;100348.78;5026173;28;20034;-55
2021/04/02 05:25:43;;;;;;;6.88;3.00;;;12.50;91.80;;;12.06;58.83;100346.72;5027156;28;20042;-51
2021/04/02 05:28:09;;;;;;;6.60;3.15;;;12.60;91.10;;;12.24;57.60;100348.28;5027584;28;20060;-57
2021/04/02 05:30:37;;;;;;;8.57;2.55;;;12.70;90.00;;;12.45;56.47;100344.38;5026115;28;20401;-59
2021/04/02 05:33:06;;;;;;;8.90;3.20;;;12.90;88.00;;;12.62;55.72;100340.84;5027771;28;20115;-55
2021/04/02 05:35:33;;;;;;;13.07;3.05;;;13.10;86.70;;;12.77;55.47;100341.81;5024802;28;20077;-55
2021/04/02 05:38:00;;;;;;;9.02;3.17;;;13.30;85.90;;;12.81;55.39;100331.88;5027978;28;20026;-52
2021/04/02 05:40:27;;;;;;;10.48;3.78;;;13.40;85.40;;;12.66;55.97;100342.16;5007097;28;20352;-55
2021/04/02 05:42:55;;;;;;;10.30;3.03;;;13.40;85.20;;;12.82;55.52;100339.53;5027821;28;20033;-55
2021/04/02 05:45:23;;;;;;;9.18;3.10;;;13.40;84.80;;;12.99;55.23;100343.00;5024834;28;20081;-58
2021/04/02 05:47:53;;;;;;;8.77;3.00;;;13.60;84.30;;;13.07;55.85;100345.63;5024207;28;20775;-56
2021/04/02 05:50:20;;;;;;;10.48;3.30;;;13.80;84.30;;;13.04;56.09;100340.72;5024117;28;20045;-55
2021/04/02 05:52:49;;;;;;;9.15;3.58;;;13.80;85.40;;;13.00;57.19;100344.63;5026526;28;20125;-50
2021/04/02 05:55:18;;;;;;;10.15;3.25;;;13.80;86.50;;;13.01;57.27;100346.28;5023225;28;20037;-52
2021/04/02 05:57:46;;;;;;;10.13;3.55;;;13.80;87.00;;;13.06;57.13;100351.84;5025845;28;20488;-54
2021/04/02 06:00:14;;;;;;;9.60;3.70;;;13.90;86.90;;;13.10;57.12;100344.47;5025522;28;20033;-52
2021/04/02 06:02:40;;;;;;;14.13;3.88;;;13.90;86.90;;;13.10;57.32;100354.94;5025483;28;20119;-53
2021/04/02 06:05:09;;;;;;;8.27;3.10;;;13.80;87.30;;;13.25;57.14;100355.94;5026406;28;20404;-57
2021/04/02 06:07:40;;;;;;;11.65;4.45;;;14.10;87.10;;;13.49;56.34;100355.09;5025246;28;20029;-52
2021/04/02 06:10:07;;;;;;;10.48;4.03;;;14.40;85.30;;;13.66;55.80;100350.66;5025950;28;20112;-54
2021/04/02 06:12:36;;;;;;;9.32;3.85;;;14.70;83.30;;;13.55;56.01;100350.03;5025326;28;20041;-51
2021/04/02 06:15:06;;;;;;;7.25;4.32;;;14.50;83.50;;;13.41;56.10;100355.94;5027457;28;20416;-53
2021/04/02 06:17:56;;;;;;;7.60;3.00;;;14.20;84.10;;;13.38;55.95;100358.88;5026023;28;20065;-57
2021/04/02 06:20:26;;;;;;;8.63;3.38;;;14.20;83.80;;;13.51;55.64;100351.34;5022585;28;20051;-54
2021/04/02 06:23:28;;;;;;;9.18;3.67;;;14.20;83.90;;;13.60;55.48;100358.19;5025622;28;20468;-53
2021/04/02 06:26:04;;;;;;;6.30;3.55;;;14.30;83.70;;;13.72;55.81;100358.63;5028281;28;20033;-54
2021/04/02 06:28:34;;;;;;;17.77;4.40;;;14.60;83.40;;;13.60;56.02;100357.38;5028981;28;20052;-52
2021/04/02 06:31:12;;;;;;;6.65;3.22;;;14.50;84.10;;;13.48;57.00;100366.56;5028466;28;20140;-51
2021/04/02 06:33:41;;;;;;;11.68;3.28;;;14.30;84.80;;;13.55;56.90;100357.06;5027719;28;20124;-48
2021/04/02 06:36:28;;;;;;;8.32;3.47;;;14.30;85.90;;;13.95;56.15;100356.13;5030469;28;20061;-47
2021/04/02 06:38:57;;;;;;;6.82;3.60;;;14.60;85.30;;;13.95;55.92;100364.00;5024368;28;20033;-46
2021/04/02 06:41:27;;;;;;;9.70;4.15;;;14.70;84.60;;;13.91;56.17;100357.47;5027952;28;20091;-49
2021/04/02 06:44:02;;;;;;;11.65;3.80;;;14.60;84.80;;;13.83;56.52;100360.09;5029679;28;20136;-51
2021/04/02 06:46:34;;;;;;;6.03;3.42;;;14.50;85.50;;;13.79;56.34;100361.41;5027241;28;20033;-51
2021/04/02 06:49:19;;;;;;;9.95;3.40;;;14.40;85.30;;;13.79;56.58;100364.84;4993427;28;20037;-53
2021/04/02 06:51:51;;;;;;;11.07;4.18;;;14.50;85.70;;;13.91;56.12;100360.88;5010563;28;20515;-49
2021/04/02 06:54:21;;;;;;;12.00;4.00;;;14.50;85.70;;;14.08;55.22;100356.44;5011744;28;20354;-48
2021/04/02 06:57:04;;;;;;;11.18;3.45;;;14.60;84.50;;;14.17;54.34;100372.94;5029086;28;20037;-50
2021/04/02 06:59:33;;;;;;;5.03;2.97;;;14.60;83.60;;;14.26;54.34;100361.41;5028066;28;20091;-53
2021/04/02 07:02:03;;;;;;;7.70;3.08;;;14.70;82.80;;;14.28;54.13;100373.34;5029809;28;20068;-51
2021/04/02 07:04:33;;;;;;;6.20;3.50;;;14.80;82.60;;;14.34;53.91;100374.47;5029454;28;20125;-55
2021/04/02 07:07:04;;;;;;;5.75;3.13;;;14.90;82.40;;;14.38;54.04;100372.34;5030202;28;20056;-53
2021/04/02 07:09:37;;;;;;;7.15;3.25;;;15.00;82.20;;;14.28;54.34;100367.28;5027160;28;20140;-48
2021/04/02 07:12:03;;;;;;;9.90;3.60;;;15.00;82.20;;;14.48;53.92;100378.22;5030524;28;20055;-53
2021/04/02 07:14:33;;;;;;;8.63;3.80;;;15.00;82.10;;;14.58;53.64;100368.34;5010467;28;20022;-54
2021/04/02 07:17:00;;;;;;;9.57;3.65;;;15.10;81.90;;;14.59;53.81;100364.72;5025521;28;20389;-49
2021/04/02 07:19:28;;;;;;;7.22;3.40;;;15.20;81.70;;;14.55;53.93;100371.31;5027827;28;20033;-55
2021/04/02 07:21:55;;;;;;;9.80;3.03;;;15.20;81.70;;;14.74;53.62;100370.84;5027199;28;20106;-49
2021/04/02 07:24:21;;;;;;;10.13;3.25;;;15.30;81.40;;;14.86;52.94;100366.81;5028629;28;20038;-51
2021/04/02 07:26:48;;;;;;;6.82;3.00;;;15.40;80.40;;;15.01;52.96;100376.56;5024732;28;20034;-50
2021/04/02 07:29:22;;;;;;;6.97;3.50;;;15.60;80.30;;;14.94;52.98;100374.66;5026755;28;20136;-55
2021/04/02 07:31:49;;;;;;;6.95;4.05;;;15.60;80.00;;;15.25;52.65;100366.69;5029707;28;20080;-54
2021/04/02 07:34:16;;;;;;;7.65;3.28;;;15.80;79.80;;;15.51;52.12;100361.06;5028397;28;20335;-49
2021/04/02 07:36:45;;;;;;;6.93;3.28;;;16.00;79.30;;;15.72;51.48;100362.16;5002826;28;20198;-51
2021/04/02 07:39:11;;;;;;;9.88;3.38;;;16.30;78.50;;;16.09;50.49;100367.31;4984373;28;20467;-52
2021/04/02 07:41:47;;;;;;;9.27;3.50;;;16.60;77.70;;;16.56;48.66;100360.78;4988270;28;20109;-54
2021/04/02 07:44:17;;;;;;;21.25;3.42;;;17.00;75.00;;;16.85;48.42;100371.28;4984579;28;20069;-53
2021/04/02 07:47:11;;;;;;;5.85;3.42;;;17.30;74.60;;;17.08;47.27;100365.78;4984275;28;20030;-49
2021/04/02 07:49:48;;;;;;;16.50;4.60;;;17.50;72.70;;;17.72;46.21;100367.53;4966236;28;20497;-50
2021/04/02 07:52:16;;;;;;;13.32;4.43;;;18.00;72.20;;;18.05;45.93;100363.25;5002067;28;20537;-55
2021/04/02 07:54:45;;;;;;;17.40;4.25;;;18.40;71.20;;;18.50;45.26;100367.06;4989788;28;20049;-54
2021/04/02 07:57:16;;;;;;;9.73;4.28;;;18.80;70.40;;;18.74;44.49;100370.22;4988559;28;20058;-52
2021/04/02 07:59:41;;;;;;;14.38;5.45;;;19.20;68.40;;;18.76;44.50;100371.66;4980677;28;20049;-50
2021/04/02 08:02:28;;;;;;;13.52;5.78;;;19.40;67.20;;;18.77;44.26;100372.47;4987617;28;20368;-50
2021/04/02 08:04:57;;;;;;;15.52;5.50;;;19.40;66.70;;;19.07;43.71;100380.81;4987921;28;20073;-52
2021/04/02 08:07:41;;;;;;;10.52;4.25;;;19.60;66.20;;;18.99;42.93;100381.00;4989137;28;20106;-53
2021/04/02 08:10:14;;;;;;;17.55;5.40;;;19.60;65.00;;;19.23;43.19;100383.88;4987689;28;20540;-54
2021/04/02 08:12:41;;;;;;;7.80;3.97;;;19.80;64.80;;;19.79;42.21;100380.00;4988470;28;20033;-55
2021/04/02 08:15:13;;;;;;;9.95;4.50;;;20.20;63.70;;;19.85;41.19;100382.63;4986209;28;20034;-52
2021/04/02 08:17:40;;;;;;;13.63;4.50;;;20.30;62.50;;;19.88;41.64;100370.81;4967882;28;20501;-52
2021/04/02 08:20:21;;;;;;;10.13;3.78;;;20.40;62.50;;;20.24;40.75;100374.78;4986751;28;20043;-51
2021/04/02 08:22:52;;;;;;;8.43;3.08;;;20.60;62.00;;;20.86;39.82;100372.22;4986981;28;20042;-52
2021/04/02 08:25:22;;;;;;;14.18;3.83;;;21.30;60.70;;;21.39;38.74;100366.53;4984513;28;20061;-48
2021/04/02 08:27:48;;;;;;;10.40;3.08;;;21.80;58.80;;;21.73;37.90;100369.72;4976534;28;20421;-54
2021/04/02 08:30:17;;;;;;;8.52;3.20;;;22.30;58.00;;;21.52;37.58;100370.91;4972129;28;20041;-54
2021/04/02 08:32:51;;;;;;;10.15;2.90;;;22.30;56.50;;;21.04;38.51;100373.34;4988639;28;20049;-53
2021/04/02 08:35:19;;;;;;;10.70;3.53;;;21.90;56.70;;;21.92;37.11;100375.81;5001692;28;20039;-51
2021/04/02 08:38:05;;;;;;;4.68;2.28;;;22.30;56.30;;;22.72;35.57;100369.28;5018157;28;20502;-51
2021/04/02 08:40:33;;;;;;;;;;;23.00;54.90;;;23.15;35.13;100373.59;5022576;28;20520;-51
2021/04/02 08:43:02;;;;;;;6.95;2.80;;;23.60;53.90;;;23.20;36.16;100370.25;5028182;28;20398;-50
2021/04/02 08:45:36;;;;;;;5.75;2.22;;;23.90;54.20;;;23.38;33.20;100365.63;5026401;28;20115;-49
2021/04/02 08:48:04;;;;;;;5.88;1.98;;;24.00;51.00;;;22.46;35.31;100380.28;5026810;28;20140;-54
2021/04/02 08:50:31;;;;;;;7.28;1.77;;;23.50;51.40;;;21.98;35.69;100366.97;5027616;28;20041;-51
2021/04/02 08:53:12;;;;;;;11.05;1.63;;;23.00;52.00;;;22.09;35.14;100379.53;5028304;28;20041;-51
2021/04/02 08:55:44;;;;;;;4.65;1.10;;;22.90;51.70;;;22.02;35.28;100374.31;5024861;28;20037;-51
2021/04/02 08:58:12;;;;;;;2.28;1.30;;;22.90;51.80;;;21.99;35.18;100363.28;5026730;28;20045;-53
2021/04/02 09:00:38;;;;;;;7.18;0.98;;;22.70;51.70;;;22.30;34.66;100365.78;5009018;28;20033;-49
2021/04/02 09:03:06;;;;;;;5.70;0.90;;;22.70;51.30;;;22.35;33.67;100363.28;5020574;28;20034;-51
2021/04/02 09:05:33;;;;;;;5.55;0.95;;;22.80;50.70;;;22.58;33.66;100362.56;5023010;28;20036;-50
2021/04/02 09:07:59;;;;;;;2.33;1.00;;;23.00;50.60;;;22.15;34.25;100360.09;5009184;28;20029;-52
2021/04/02 09:10:27;;;;;;;5.40;1.60;;;22.90;50.40;;;21.73;35.26;100359.09;5010113;28;20034;-51
2021/04/02 09:12:54;;;;;;;5.13;1.15;;;22.60;51.30;;;22.07;35.23;100355.88;5024636;28;20034;-51
2021/04/02 09:15:28;;;;;;;7.30;1.10;;;22.60;52.10;;;22.46;33.72;100353.75;5027816;28;20064;-48
2021/04/02 09:18:12;;;;;;;3.40;1.03;;;22.80;51.50;;;22.93;34.07;100351.25;5017158;28;20041;-51
2021/04/02 09:20:38;;;;;;;4.32;1.42;;;23.20;51.30;;;22.29;35.16;100353.56;5014433;28;20199;-52
2021/04/02 09:23:04;;;;;;;4.78;1.33;;;23.00;51.00;;;22.29;35.13;100347.44;5006263;28;20056;-52
2021/04/02 09:25:30;;;;;;;6.78;1.33;;;22.90;51.10;;;22.10;35.44;100347.47;5025360;28;20638;-49
2021/04/02 09:28:06;;;;;;;3.70;1.02;;;22.70;51.80;;;22.58;34.37;100341.34;5027714;28;20025;-48
2021/04/02 09:30:33;;;;;;;4.75;1.23;;;23.00;51.40;;;22.95;33.96;100339.38;5026356;28;20366;-50
2021/04/02 09:32:59;;;;;;;7.13;0.80;;;23.30;50.80;;;22.88;33.97;100335.19;5025780;28;20028;-49
2021/04/02 09:35:25;;;;;;;3.55;0.80;;;23.40;50.50;;;22.64;33.83;100335.13;5009247;28;20032;-52
2021/04/02 09:37:53;;;;;;;6.10;1.00;;;23.40;49.70;;;22.36;34.84;100338.34;5000614;28;20461;-48
2021/04/02 09:40:19;;;;;;;9.93;0.70;;;23.00;50.80;;;22.55;34.87;100335.66;5007613;28;20121;-54
2021/04/02 09:42:48;;;;;;;7.22;1.02;;;23.20;50.80;;;22.24;34.25;100329.53;5006598;28;21455;-49
2021/04/02 09:45:16;;;;;;;3.80;0.70;;;22.90;50.50;;;22.11;34.69;100325.22;5004981;28;20054;-51
2021/04/02 09:47:47;;;;;;;5.00;0.63;;;22.80;50.50;;;21.94;34.42;100321.50;5007133;28;20121;-52
2021/04/02 09:50:17;;;;;;;7.05;1.20;;;22.60;50.80;;;22.15;34.36;100325.59;5005989;28;20235;-53
2021/04/02 09:52:45;;;;;;;3.85;1.25;;;22.70;50.70;;;22.38;34.20;100324.88;5007870;28;20044;-53
2021/04/02 09:55:13;;;;;;;4.18;0.70;;;22.90;50.20;;;22.57;33.17;100318.47;4993805;28;20035;-55
2021/04/02 09:57:39;;;;;;;4.45;0.90;;;23.10;49.30;;;22.74;32.94;100324.75;5001734;28;20037;-53
2021/04/02 10:00:09;;;;;;;3.25;0.50;;;23.20;48.90;;;23.12;32.02;100315.59;5007815;28;20429;-55
2021/04/02 10:02:36;;;;;;;2.58;0.52;;;23.40;48.70;;;23.55;31.00;100319.78;5010447;28;20092;-53
2021/04/02 10:05:04;;;;;;;2.80;0.70;;;23.90;47.50;;;23.39;31.02;100306.13;5010630;28;20034;-54
2021/04/02 10:07:30;;;;;;;2.90;0.50;;;23.90;46.90;;;23.44;31.35;100314.19;5010957;28;20124;-54
2021/04/02 10:09:56;;;;;;;6.95;0.40;;;23.90;47.10;;;23.69;30.54;100315.81;5011189;28;20077;-51
2021/04/02 10:12:22;;;;;;;2.95;1.00;;;24.00;46.60;;;23.54;31.03;100308.34;5011169;28;20120;-49
2021/04/02 10:14:48;;;;;;;4.05;0.50;;;24.00;46.60;;;23.58;30.59;100309.50;5011074;28;20129;-54
2021/04/02 10:17:15;;;;;;;2.42;0.40;;;24.00;46.60;;;23.77;30.59;100308.28;5010186;28;20351;-57
2021/04/02 10:19:41;;;;;;;4.82;0.70;;;24.10;46.60;;;23.73;30.63;100301.00;5010297;28;20030;-60
2021/04/02 10:22:07;;;;;;;4.75;0.57;;;24.20;46.00;;;24.00;30.27;100298.63;5006834;28;20627;-56
2021/04/02 10:24:35;;;;;;;4.57;0.45;;;24.30;46.20;;;23.38;30.48;100293.06;5010091;28;20155;-60
2021/04/02 10:27:00;;;;;;;4.35;0.50;;;24.10;45.20;;;23.26;30.24;100284.28;5008568;28;20481;-53